Peary, Virginia
Current Conditions -  °F | °C
As of 12:55 AM on Sunday 26 Oct 2014 (Local Time) from KW75 Reporting Station
Clear Clear  
Wind Chill: 57°   Ceiling: Unl
Heat Index: 57°   Visibility: 10mi
Dew Point: 45°   Wind: 3mph
Humidity: 64%   Direction: 270°W
Pressure: 29.73"   Gusts: NA
Location:  37.3757°N, 76.2979°W
Report Text: KW75 260455Z AUTO 27003KT 10SM CLR 14/07 A2973 RMK AO1 T01410073 402110064
Loading
Personal Weather Stations






























Interactive Weather Map
Tropical Storm Tracking
New forecast layout! Learn more

10-Day Weather Forecast

Advertisements
Track Severe Weather on mobile